sensor_id;sensor_type;location;lat;lon;timestamp;P1;durP1;ratioP1;P2;durP2;ratioP2
2972;SDS011;1496;51.404;7.232;2023-02-01T00:00:56;20.17;;;9.90;;
2972;SDS011;1496;51.404;7.232;2023-02-01T00:03:22;24.43;;;9.30;;
2972;SDS011;1496;51.404;7.232;2023-02-01T00:05:55;22.30;;;9.57;;
2972;SDS011;1496;51.404;7.232;2023-02-01T00:08:22;18.60;;;8.33;;
2972;SDS011;1496;51.404;7.232;2023-02-01T00:10:48;22.90;;;8.57;;
2972;SDS011;1496;51.404;7.232;2023-02-01T00:13:22;24.93;;;7.43;;
2972;SDS011;1496;51.404;7.232;2023-02-01T00:15:49;19.27;;;8.20;;
2972;SDS011;1496;51.404;7.232;2023-02-01T00:18:15;16.63;;;7.20;;
2972;SDS011;1496;51.404;7.232;2023-02-01T00:20:46;14.63;;;6.30;;
2972;SDS011;1496;51.404;7.232;2023-02-01T00:23:12;13.80;;;6.40;;
2972;SDS011;1496;51.404;7.232;2023-02-01T00:25:38;18.30;;;7.03;;
2972;SDS011;1496;51.404;7.232;2023-02-01T00:28:05;17.17;;;6.20;;
2972;SDS011;1496;51.404;7.232;2023-02-01T00:30:31;18.30;;;5.80;;
2972;SDS011;1496;51.404;7.232;2023-02-01T00:32:58;15.07;;;7.67;;
2972;SDS011;1496;51.404;7.232;2023-02-01T00:35:24;12.33;;;5.60;;
2972;SDS011;1496;51.404;7.232;2023-02-01T00:37:52;11.33;;;5.37;;
2972;SDS011;1496;51.404;7.232;2023-02-01T00:40:18;18.90;;;7.20;;
2972;SDS011;1496;51.404;7.232;2023-02-01T00:42:44;20.43;;;5.10;;
2972;SDS011;1496;51.404;7.232;2023-02-01T00:45:10;14.97;;;6.43;;
2972;SDS011;1496;51.404;7.232;2023-02-01T00:47:37;14.63;;;5.90;;
2972;SDS011;1496;51.404;7.232;2023-02-01T00:50:05;14.40;;;4.70;;
2972;SDS011;1496;51.404;7.232;2023-02-01T00:52:31;16.40;;;5.27;;
2972;SDS011;1496;51.404;7.232;2023-02-01T00:54:58;20.83;;;4.43;;
2972;SDS011;1496;51.404;7.232;2023-02-01T00:57:24;18.00;;;4.60;;
2972;SDS011;1496;51.404;7.232;2023-02-01T00:59:52;21.60;;;5.53;;
2972;SDS011;1496;51.404;7.232;2023-02-01T01:02:20;21.17;;;5.27;;
2972;SDS011;1496;51.404;7.232;2023-02-01T01:04:47;19.07;;;5.37;;
2972;SDS011;1496;51.404;7.232;2023-02-01T01:07:14;24.50;;;6.73;;
2972;SDS011;1496;51.404;7.232;2023-02-01T01:09:42;16.83;;;4.93;;
2972;SDS011;1496;51.404;7.232;2023-02-01T01:12:10;17.33;;;5.10;;
2972;SDS011;1496;51.404;7.232;2023-02-01T01:14:38;17.90;;;5.60;;
2972;SDS011;1496;51.404;7.232;2023-02-01T01:17:04;12.57;;;5.00;;
2972;SDS011;1496;51.404;7.232;2023-02-01T01:19:31;14.63;;;5.13;;
2972;SDS011;1496;51.404;7.232;2023-02-01T01:21:58;16.90;;;5.53;;
2972;SDS011;1496;51.404;7.232;2023-02-01T01:24:24;17.37;;;5.40;;
2972;SDS011;1496;51.404;7.232;2023-02-01T01:26:52;16.10;;;6.37;;
2972;SDS011;1496;51.404;7.232;2023-02-01T01:29:18;13.73;;;6.00;;
2972;SDS011;1496;51.404;7.232;2023-02-01T01:31:46;22.63;;;6.97;;
2972;SDS011;1496;51.404;7.232;2023-02-01T01:34:14;19.90;;;7.33;;
2972;SDS011;1496;51.404;7.232;2023-02-01T01:36:40;17.50;;;7.60;;
2972;SDS011;1496;51.404;7.232;2023-02-01T01:39:07;27.20;;;9.47;;
2972;SDS011;1496;51.404;7.232;2023-02-01T01:41:33;15.67;;;7.60;;
2972;SDS011;1496;51.404;7.232;2023-02-01T01:47:18;23.93;;;6.33;;
2972;SDS011;1496;51.404;7.232;2023-02-01T01:49:44;14.33;;;7.10;;
2972;SDS011;1496;51.404;7.232;2023-02-01T01:52:13;20.40;;;7.23;;
2972;SDS011;1496;51.404;7.232;2023-02-01T01:54:43;17.20;;;6.93;;
2972;SDS011;1496;51.404;7.232;2023-02-01T01:58:00;20.33;;;6.70;;
2972;SDS011;1496;51.404;7.232;2023-02-01T02:00:07;27.60;;;8.13;;
2972;SDS011;1496;51.404;7.232;2023-02-01T02:02:43;14.20;;;6.50;;
2972;SDS011;1496;51.404;7.232;2023-02-01T02:05:13;15.60;;;6.70;;
2972;SDS011;1496;51.404;7.232;2023-02-01T02:07:42;22.63;;;6.50;;
2972;SDS011;1496;51.404;7.232;2023-02-01T02:10:13;17.37;;;6.70;;
2972;SDS011;1496;51.404;7.232;2023-02-01T02:12:43;18.67;;;7.03;;
2972;SDS011;1496;51.404;7.232;2023-02-01T02:15:12;18.83;;;7.20;;
2972;SDS011;1496;51.404;7.232;2023-02-01T02:17:59;19.03;;;6.70;;
2972;SDS011;1496;51.404;7.232;2023-02-01T02:23:10;15.03;;;5.80;;
2972;SDS011;1496;51.404;7.232;2023-02-01T02:29:30;20.40;;;4.60;;
2972;SDS011;1496;51.404;7.232;2023-02-01T02:37:53;23.33;;;5.17;;
2972;SDS011;1496;51.404;7.232;2023-02-01T02:40:36;13.30;;;4.50;;
2972;SDS011;1496;51.404;7.232;2023-02-01T02:43:32;19.40;;;4.40;;
2972;SDS011;1496;51.404;7.232;2023-02-01T02:46:47;18.47;;;4.13;;
2972;SDS011;1496;51.404;7.232;2023-02-01T02:53:02;14.77;;;3.97;;
2972;SDS011;1496;51.404;7.232;2023-02-01T02:55:54;13.77;;;4.50;;
2972;SDS011;1496;51.404;7.232;2023-02-01T02:58:41;20.03;;;3.40;;
2972;SDS011;1496;51.404;7.232;2023-02-01T03:01:29;16.40;;;4.80;;
2972;SDS011;1496;51.404;7.232;2023-02-01T03:04:17;9.50;;;3.50;;
2972;SDS011;1496;51.404;7.232;2023-02-01T03:06:48;11.47;;;3.87;;
2972;SDS011;1496;51.404;7.232;2023-02-01T03:09:34;14.27;;;3.10;;
2972;SDS011;1496;51.404;7.232;2023-02-01T03:12:06;19.73;;;3.40;;
2972;SDS011;1496;51.404;7.232;2023-02-01T03:14:57;15.30;;;3.33;;
2972;SDS011;1496;51.404;7.232;2023-02-01T03:17:33;17.00;;;3.73;;
2972;SDS011;1496;51.404;7.232;2023-02-01T03:20:06;15.90;;;4.10;;
2972;SDS011;1496;51.404;7.232;2023-02-01T03:22:36;15.43;;;3.83;;
2972;SDS011;1496;51.404;7.232;2023-02-01T03:27:40;25.47;;;4.87;;
2972;SDS011;1496;51.404;7.232;2023-02-01T03:30:20;12.53;;;3.73;;
2972;SDS011;1496;51.404;7.232;2023-02-01T03:32:48;11.83;;;3.50;;
2972;SDS011;1496;51.404;7.232;2023-02-01T03:35:36;15.40;;;3.93;;
2972;SDS011;1496;51.404;7.232;2023-02-01T03:41:01;10.73;;;3.43;;
2972;SDS011;1496;51.404;7.232;2023-02-01T03:43:58;12.30;;;3.20;;
2972;SDS011;1496;51.404;7.232;2023-02-01T03:46:33;18.67;;;3.40;;
2972;SDS011;1496;51.404;7.232;2023-02-01T03:49:08;17.70;;;4.70;;
2972;SDS011;1496;51.404;7.232;2023-02-01T03:51:40;15.37;;;3.60;;
2972;SDS011;1496;51.404;7.232;2023-02-01T03:54:10;9.97;;;3.57;;
2972;SDS011;1496;51.404;7.232;2023-02-01T03:56:41;12.20;;;3.53;;
2972;SDS011;1496;51.404;7.232;2023-02-01T03:59:10;18.30;;;4.20;;
2972;SDS011;1496;51.404;7.232;2023-02-01T04:01:38;12.80;;;3.90;;
2972;SDS011;1496;51.404;7.232;2023-02-01T04:04:04;16.87;;;4.37;;
2972;SDS011;1496;51.404;7.232;2023-02-01T04:06:31;15.93;;;3.77;;
2972;SDS011;1496;51.404;7.232;2023-02-01T04:09:01;13.43;;;4.37;;
2972;SDS011;1496;51.404;7.232;2023-02-01T04:11:28;14.47;;;3.57;;
2972;SDS011;1496;51.404;7.232;2023-02-01T04:13:55;19.17;;;4.60;;
2972;SDS011;1496;51.404;7.232;2023-02-01T04:16:21;12.33;;;3.77;;
2972;SDS011;1496;51.404;7.232;2023-02-01T04:18:49;13.63;;;4.27;;
2972;SDS011;1496;51.404;7.232;2023-02-01T04:21:15;11.03;;;3.60;;
2972;SDS011;1496;51.404;7.232;2023-02-01T04:23:43;14.47;;;4.03;;
2972;SDS011;1496;51.404;7.232;2023-02-01T04:26:11;19.63;;;3.57;;
2972;SDS011;1496;51.404;7.232;2023-02-01T04:28:37;16.33;;;5.30;;
2972;SDS011;1496;51.404;7.232;2023-02-01T04:31:05;26.20;;;4.67;;
2972;SDS011;1496;51.404;7.232;2023-02-01T04:33:31;12.00;;;5.40;;
2972;SDS011;1496;51.404;7.232;2023-02-01T04:35:58;17.03;;;3.23;;
2972;SDS011;1496;51.404;7.232;2023-02-01T04:38:27;14.17;;;3.87;;
2972;SDS011;1496;51.404;7.232;2023-02-01T04:40:54;16.50;;;4.50;;
2972;SDS011;1496;51.404;7.232;2023-02-01T04:43:21;12.87;;;4.13;;
2972;SDS011;1496;51.404;7.232;2023-02-01T04:45:48;12.80;;;4.00;;
2972;SDS011;1496;51.404;7.232;2023-02-01T04:48:16;18.90;;;3.97;;
2972;SDS011;1496;51.404;7.232;2023-02-01T04:50:46;13.80;;;4.77;;
2972;SDS011;1496;51.404;7.232;2023-02-01T04:53:14;17.60;;;4.90;;
2972;SDS011;1496;51.404;7.232;2023-02-01T04:55:41;17.67;;;4.63;;
2972;SDS011;1496;51.404;7.232;2023-02-01T04:58:08;14.30;;;3.97;;
2972;SDS011;1496;51.404;7.232;2023-02-01T05:00:35;17.03;;;4.43;;
2972;SDS011;1496;51.404;7.232;2023-02-01T05:03:01;16.63;;;4.63;;
2972;SDS011;1496;51.404;7.232;2023-02-01T05:05:28;22.43;;;4.53;;
2972;SDS011;1496;51.404;7.232;2023-02-01T05:07:55;15.33;;;4.00;;
2972;SDS011;1496;51.404;7.232;2023-02-01T05:10:21;15.27;;;4.27;;
2972;SDS011;1496;51.404;7.232;2023-02-01T05:12:48;14.73;;;3.73;;
2972;SDS011;1496;51.404;7.232;2023-02-01T05:15:33;19.73;;;4.20;;
2972;SDS011;1496;51.404;7.232;2023-02-01T05:17:59;13.87;;;3.80;;
2972;SDS011;1496;51.404;7.232;2023-02-01T05:20:26;15.63;;;4.67;;
2972;SDS011;1496;51.404;7.232;2023-02-01T05:22:53;14.77;;;5.67;;
2972;SDS011;1496;51.404;7.232;2023-02-01T05:25:20;14.50;;;4.00;;
2972;SDS011;1496;51.404;7.232;2023-02-01T05:27:46;17.70;;;4.77;;
2972;SDS011;1496;51.404;7.232;2023-02-01T05:30:13;22.27;;;5.27;;
2972;SDS011;1496;51.404;7.232;2023-02-01T05:32:40;26.63;;;5.17;;
2972;SDS011;1496;51.404;7.232;2023-02-01T05:35:07;15.83;;;4.50;;
2972;SDS011;1496;51.404;7.232;2023-02-01T05:37:34;26.47;;;5.27;;
2972;SDS011;1496;51.404;7.232;2023-02-01T05:40:01;15.50;;;4.50;;
2972;SDS011;1496;51.404;7.232;2023-02-01T05:42:28;19.60;;;5.03;;
2972;SDS011;1496;51.404;7.232;2023-02-01T05:44:55;13.33;;;3.80;;
2972;SDS011;1496;51.404;7.232;2023-02-01T05:47:22;14.83;;;4.00;;
2972;SDS011;1496;51.404;7.232;2023-02-01T05:49:50;19.20;;;4.60;;
2972;SDS011;1496;51.404;7.232;2023-02-01T05:52:16;19.90;;;4.87;;
2972;SDS011;1496;51.404;7.232;2023-02-01T05:54:45;26.00;;;5.50;;
2972;SDS011;1496;51.404;7.232;2023-02-01T05:57:13;14.50;;;4.03;;
2972;SDS011;1496;51.404;7.232;2023-02-01T05:59:41;19.13;;;4.47;;
2972;SDS011;1496;51.404;7.232;2023-02-01T06:02:11;22.80;;;4.60;;
2972;SDS011;1496;51.404;7.232;2023-02-01T06:04:37;16.53;;;4.90;;
2972;SDS011;1496;51.404;7.232;2023-02-01T06:07:09;24.73;;;4.60;;
2972;SDS011;1496;51.404;7.232;2023-02-01T06:09:36;13.87;;;5.23;;
2972;SDS011;1496;51.404;7.232;2023-02-01T06:12:04;17.77;;;4.03;;
2972;SDS011;1496;51.404;7.232;2023-02-01T06:14:32;15.03;;;4.23;;
2972;SDS011;1496;51.404;7.232;2023-02-01T06:16:59;17.47;;;4.73;;
2972;SDS011;1496;51.404;7.232;2023-02-01T06:19:26;22.20;;;5.77;;
2972;SDS011;1496;51.404;7.232;2023-02-01T06:21:52;20.77;;;4.60;;
2972;SDS011;1496;51.404;7.232;2023-02-01T06:24:19;16.37;;;4.60;;
2972;SDS011;1496;51.404;7.232;2023-02-01T06:26:45;15.67;;;5.00;;
2972;SDS011;1496;51.404;7.232;2023-02-01T06:29:13;16.03;;;4.33;;
2972;SDS011;1496;51.404;7.232;2023-02-01T06:31:38;15.70;;;5.40;;
2972;SDS011;1496;51.404;7.232;2023-02-01T06:34:05;12.23;;;4.50;;
2972;SDS011;1496;51.404;7.232;2023-02-01T06:36:34;14.33;;;4.43;;
2972;SDS011;1496;51.404;7.232;2023-02-01T06:39:02;20.73;;;4.67;;
2972;SDS011;1496;51.404;7.232;2023-02-01T06:41:29;12.50;;;4.50;;
2972;SDS011;1496;51.404;7.232;2023-02-01T06:43:55;15.97;;;4.37;;
2972;SDS011;1496;51.404;7.232;2023-02-01T06:46:22;19.00;;;5.20;;
2972;SDS011;1496;51.404;7.232;2023-02-01T06:48:49;18.60;;;4.17;;
2972;SDS011;1496;51.404;7.232;2023-02-01T06:51:20;19.30;;;4.40;;
2972;SDS011;1496;51.404;7.232;2023-02-01T06:53:50;19.87;;;5.50;;
2972;SDS011;1496;51.404;7.232;2023-02-01T06:56:16;12.90;;;3.73;;
2972;SDS011;1496;51.404;7.232;2023-02-01T06:58:44;18.40;;;4.93;;
2972;SDS011;1496;51.404;7.232;2023-02-01T07:01:11;23.40;;;5.63;;
2972;SDS011;1496;51.404;7.232;2023-02-01T07:03:40;15.70;;;3.63;;
2972;SDS011;1496;51.404;7.232;2023-02-01T07:06:08;11.97;;;3.30;;
2972;SDS011;1496;51.404;7.232;2023-02-01T07:08:35;13.67;;;4.77;;
2972;SDS011;1496;51.404;7.232;2023-02-01T07:11:03;26.50;;;4.87;;
2972;SDS011;1496;51.404;7.232;2023-02-01T07:13:31;19.43;;;4.90;;
2972;SDS011;1496;51.404;7.232;2023-02-01T07:15:58;16.73;;;4.80;;
2972;SDS011;1496;51.404;7.232;2023-02-01T07:18:29;21.03;;;5.33;;
2972;SDS011;1496;51.404;7.232;2023-02-01T07:20:57;18.77;;;4.10;;
2972;SDS011;1496;51.404;7.232;2023-02-01T07:23:23;27.73;;;5.13;;
2972;SDS011;1496;51.404;7.232;2023-02-01T07:25:54;12.80;;;3.93;;
2972;SDS011;1496;51.404;7.232;2023-02-01T07:28:24;19.83;;;4.77;;
2972;SDS011;1496;51.404;7.232;2023-02-01T07:30:52;18.30;;;5.00;;
2972;SDS011;1496;51.404;7.232;2023-02-01T07:33:22;14.53;;;5.03;;
2972;SDS011;1496;51.404;7.232;2023-02-01T07:35:51;23.90;;;4.53;;
2972;SDS011;1496;51.404;7.232;2023-02-01T07:38:18;15.43;;;4.13;;
2972;SDS011;1496;51.404;7.232;2023-02-01T07:40:47;15.80;;;4.37;;
2972;SDS011;1496;51.404;7.232;2023-02-01T07:43:13;15.97;;;4.37;;
2972;SDS011;1496;51.404;7.232;2023-02-01T07:45:40;14.03;;;3.70;;
2972;SDS011;1496;51.404;7.232;2023-02-01T07:48:06;18.00;;;3.83;;
2972;SDS011;1496;51.404;7.232;2023-02-01T07:50:33;12.87;;;4.13;;
2972;SDS011;1496;51.404;7.232;2023-02-01T07:53:01;14.27;;;3.83;;
2972;SDS011;1496;51.404;7.232;2023-02-01T07:55:28;17.53;;;4.97;;
2972;SDS011;1496;51.404;7.232;2023-02-01T07:57:58;19.83;;;5.57;;
2972;SDS011;1496;51.404;7.232;2023-02-01T08:00:26;21.20;;;4.23;;
2972;SDS011;1496;51.404;7.232;2023-02-01T08:03:11;16.00;;;5.47;;
2972;SDS011;1496;51.404;7.232;2023-02-01T08:05:38;23.63;;;5.27;;
2972;SDS011;1496;51.404;7.232;2023-02-01T08:08:06;13.23;;;5.70;;
2972;SDS011;1496;51.404;7.232;2023-02-01T08:10:33;11.00;;;7.13;;
2972;SDS011;1496;51.404;7.232;2023-02-01T08:13:01;22.90;;;4.60;;
2972;SDS011;1496;51.404;7.232;2023-02-01T08:15:30;14.80;;;6.27;;
2972;SDS011;1496;51.404;7.232;2023-02-01T08:17:57;14.20;;;5.20;;
2972;SDS011;1496;51.404;7.232;2023-02-01T08:20:25;20.20;;;5.10;;
2972;SDS011;1496;51.404;7.232;2023-02-01T08:22:53;23.27;;;5.40;;
2972;SDS011;1496;51.404;7.232;2023-02-01T08:25:21;20.93;;;7.47;;
2972;SDS011;1496;51.404;7.232;2023-02-01T08:27:49;16.10;;;4.63;;
2972;SDS011;1496;51.404;7.232;2023-02-01T08:30:17;22.00;;;5.10;;
2972;SDS011;1496;51.404;7.232;2023-02-01T08:32:43;21.10;;;5.67;;
2972;SDS011;1496;51.404;7.232;2023-02-01T08:35:10;26.17;;;5.17;;
2972;SDS011;1496;51.404;7.232;2023-02-01T08:37:37;22.77;;;6.10;;
2972;SDS011;1496;51.404;7.232;2023-02-01T08:40:04;22.13;;;5.20;;
2972;SDS011;1496;51.404;7.232;2023-02-01T08:42:31;15.30;;;5.17;;
2972;SDS011;1496;51.404;7.232;2023-02-01T08:45:16;20.10;;;6.27;;
2972;SDS011;1496;51.404;7.232;2023-02-01T08:47:56;16.17;;;6.10;;
2972;SDS011;1496;51.404;7.232;2023-02-01T08:50:24;25.00;;;5.53;;
2972;SDS011;1496;51.404;7.232;2023-02-01T08:52:50;23.97;;;5.60;;
2972;SDS011;1496;51.404;7.232;2023-02-01T08:55:17;25.97;;;6.47;;
2972;SDS011;1496;51.404;7.232;2023-02-01T08:57:45;22.07;;;5.60;;
2972;SDS011;1496;51.404;7.232;2023-02-01T09:00:13;19.17;;;6.37;;
2972;SDS011;1496;51.404;7.232;2023-02-01T09:02:42;24.17;;;6.10;;
2972;SDS011;1496;51.404;7.232;2023-02-01T09:05:10;13.03;;;5.87;;
2972;SDS011;1496;51.404;7.232;2023-02-01T09:07:40;25.70;;;6.90;;
2972;SDS011;1496;51.404;7.232;2023-02-01T09:10:08;19.23;;;5.73;;
2972;SDS011;1496;51.404;7.232;2023-02-01T09:12:36;29.83;;;6.77;;
2972;SDS011;1496;51.404;7.232;2023-02-01T09:15:03;12.50;;;5.73;;
2972;SDS011;1496;51.404;7.232;2023-02-01T09:17:33;15.17;;;5.70;;
2972;SDS011;1496;51.404;7.232;2023-02-01T09:20:00;16.27;;;5.40;;
2972;SDS011;1496;51.404;7.232;2023-02-01T09:22:26;19.40;;;5.67;;
2972;SDS011;1496;51.404;7.232;2023-02-01T09:24:52;28.33;;;6.10;;
2972;SDS011;1496;51.404;7.232;2023-02-01T09:27:19;11.00;;;5.93;;
2972;SDS011;1496;51.404;7.232;2023-02-01T09:29:46;19.20;;;5.97;;
2972;SDS011;1496;51.404;7.232;2023-02-01T09:32:19;14.50;;;5.37;;
2972;SDS011;1496;51.404;7.232;2023-02-01T09:34:46;17.33;;;5.63;;
2972;SDS011;1496;51.404;7.232;2023-02-01T09:37:12;19.57;;;6.90;;
2972;SDS011;1496;51.404;7.232;2023-02-01T09:39:40;12.03;;;5.53;;
2972;SDS011;1496;51.404;7.232;2023-02-01T09:47:54;19.20;;;6.27;;
2972;SDS011;1496;51.404;7.232;2023-02-01T09:50:44;23.07;;;6.90;;
2972;SDS011;1496;51.404;7.232;2023-02-01T09:53:37;27.13;;;6.67;;
2972;SDS011;1496;51.404;7.232;2023-02-01T09:56:18;18.40;;;5.90;;
2972;SDS011;1496;51.404;7.232;2023-02-01T09:59:00;23.53;;;7.03;;
2972;SDS011;1496;51.404;7.232;2023-02-01T10:01:48;13.70;;;6.10;;
2972;SDS011;1496;51.404;7.232;2023-02-01T10:04:14;20.03;;;6.73;;
2972;SDS011;1496;51.404;7.232;2023-02-01T10:06:57;17.47;;;5.90;;
2972;SDS011;1496;51.404;7.232;2023-02-01T10:09:40;15.57;;;6.03;;
2972;SDS011;1496;51.404;7.232;2023-02-01T10:18:19;15.23;;;5.80;;
2972;SDS011;1496;51.404;7.232;2023-02-01T10:26:37;19.50;;;6.33;;
2972;SDS011;1496;51.404;7.232;2023-02-01T10:29:14;10.87;;;5.40;;
2972;SDS011;1496;51.404;7.232;2023-02-01T10:31:46;16.13;;;6.73;;
2972;SDS011;1496;51.404;7.232;2023-02-01T10:39:25;19.57;;;5.50;;
2972;SDS011;1496;51.404;7.232;2023-02-01T10:41:52;18.57;;;4.73;;
2972;SDS011;1496;51.404;7.232;2023-02-01T10:44:26;17.03;;;4.93;;
2972;SDS011;1496;51.404;7.232;2023-02-01T10:46:56;15.73;;;4.80;;
2972;SDS011;1496;51.404;7.232;2023-02-01T10:52:19;15.23;;;5.50;;
2972;SDS011;1496;51.404;7.232;2023-02-01T10:55:31;13.57;;;5.10;;
2972;SDS011;1496;51.404;7.232;2023-02-01T10:58:02;14.87;;;6.43;;
2972;SDS011;1496;51.404;7.232;2023-02-01T11:00:52;30.07;;;6.10;;
2972;SDS011;1496;51.404;7.232;2023-02-01T11:05:57;17.83;;;5.20;;
2972;SDS011;1496;51.404;7.232;2023-02-01T11:08:24;18.10;;;7.23;;
2972;SDS011;1496;51.404;7.232;2023-02-01T11:10:59;18.57;;;5.90;;
2972;SDS011;1496;51.404;7.232;2023-02-01T11:13:29;23.50;;;5.00;;
2972;SDS011;1496;51.404;7.232;2023-02-01T11:15:59;14.37;;;4.17;;
2972;SDS011;1496;51.404;7.232;2023-02-01T11:18:31;17.50;;;5.33;;
2972;SDS011;1496;51.404;7.232;2023-02-01T11:21:02;14.67;;;5.70;;
2972;SDS011;1496;51.404;7.232;2023-02-01T11:23:30;16.60;;;5.67;;
2972;SDS011;1496;51.404;7.232;2023-02-01T11:26:07;16.87;;;5.00;;
2972;SDS011;1496;51.404;7.232;2023-02-01T11:28:46;23.10;;;5.93;;
2972;SDS011;1496;51.404;7.232;2023-02-01T11:31:35;19.70;;;6.00;;
2972;SDS011;1496;51.404;7.232;2023-02-01T11:37:00;18.23;;;6.33;;
2972;SDS011;1496;51.404;7.232;2023-02-01T11:39:30;11.03;;;4.47;;
2972;SDS011;1496;51.404;7.232;2023-02-01T11:42:04;20.57;;;5.27;;
2972;SDS011;1496;51.404;7.232;2023-02-01T11:44:43;15.87;;;5.23;;
2972;SDS011;1496;51.404;7.232;2023-02-01T11:49:58;28.83;;;5.10;;
2972;SDS011;1496;51.404;7.232;2023-02-01T11:55:42;14.00;;;5.10;;
2972;SDS011;1496;51.404;7.232;2023-02-01T12:04:16;9.17;;;3.63;;
2972;SDS011;1496;51.404;7.232;2023-02-01T12:07:14;13.13;;;3.17;;
2972;SDS011;1496;51.404;7.232;2023-02-01T12:15:46;18.30;;;5.43;;
2972;SDS011;1496;51.404;7.232;2023-02-01T12:40:36;27.90;;;4.97;;
2972;SDS011;1496;51.404;7.232;2023-02-01T12:43:27;21.47;;;6.47;;
2972;SDS011;1496;51.404;7.232;2023-02-01T12:46:30;13.17;;;3.93;;
2972;SDS011;1496;51.404;7.232;2023-02-01T12:51:52;16.90;;;5.40;;
2972;SDS011;1496;51.404;7.232;2023-02-01T12:54:37;10.80;;;4.10;;
2972;SDS011;1496;51.404;7.232;2023-02-01T12:57:17;18.00;;;3.97;;
2972;SDS011;1496;51.404;7.232;2023-02-01T12:59:54;19.80;;;4.77;;
2972;SDS011;1496;51.404;7.232;2023-02-01T13:07:49;11.77;;;3.97;;
2972;SDS011;1496;51.404;7.232;2023-02-01T13:13:16;15.77;;;4.03;;
2972;SDS011;1496;51.404;7.232;2023-02-01T13:16:06;14.03;;;5.10;;
2972;SDS011;1496;51.404;7.232;2023-02-01T13:18:39;26.03;;;5.07;;
2972;SDS011;1496;51.404;7.232;2023-02-01T13:21:12;16.77;;;4.10;;
2972;SDS011;1496;51.404;7.232;2023-02-01T13:23:51;23.27;;;4.67;;
2972;SDS011;1496;51.404;7.232;2023-02-01T13:26:19;15.30;;;4.70;;
2972;SDS011;1496;51.404;7.232;2023-02-01T13:28:51;13.37;;;3.80;;
2972;SDS011;1496;51.404;7.232;2023-02-01T13:34:32;15.43;;;4.40;;
2972;SDS011;1496;51.404;7.232;2023-02-01T13:39:55;15.13;;;4.53;;
2972;SDS011;1496;51.404;7.232;2023-02-01T13:42:47;19.90;;;3.80;;
2972;SDS011;1496;51.404;7.232;2023-02-01T13:45:18;16.73;;;3.93;;
2972;SDS011;1496;51.404;7.232;2023-02-01T13:47:51;16.93;;;4.00;;
2972;SDS011;1496;51.404;7.232;2023-02-01T13:50:30;14.70;;;4.00;;
2972;SDS011;1496;51.404;7.232;2023-02-01T13:55:43;10.13;;;3.57;;
2972;SDS011;1496;51.404;7.232;2023-02-01T14:03:55;16.73;;;3.10;;
2972;SDS011;1496;51.404;7.232;2023-02-01T14:11:44;16.93;;;3.90;;
2972;SDS011;1496;51.404;7.232;2023-02-01T14:16:43;20.30;;;3.73;;
2972;SDS011;1496;51.404;7.232;2023-02-01T14:19:31;19.93;;;3.23;;
2972;SDS011;1496;51.404;7.232;2023-02-01T14:24:52;14.13;;;3.30;;
2972;SDS011;1496;51.404;7.232;2023-02-01T14:27:22;15.97;;;3.60;;
2972;SDS011;1496;51.404;7.232;2023-02-01T14:29:57;12.17;;;3.23;;
2972;SDS011;1496;51.404;7.232;2023-02-01T14:32:47;12.07;;;2.83;;
2972;SDS011;1496;51.404;7.232;2023-02-01T14:35:17;11.93;;;3.60;;
2972;SDS011;1496;51.404;7.232;2023-02-01T14:37:46;14.83;;;3.33;;
2972;SDS011;1496;51.404;7.232;2023-02-01T14:40:26;17.30;;;3.60;;
2972;SDS011;1496;51.404;7.232;2023-02-01T14:42:54;23.20;;;4.47;;
2972;SDS011;1496;51.404;7.232;2023-02-01T14:55:47;18.60;;;3.93;;
2972;SDS011;1496;51.404;7.232;2023-02-01T15:01:21;12.77;;;3.10;;
2972;SDS011;1496;51.404;7.232;2023-02-01T15:09:26;13.73;;;3.40;;
2972;SDS011;1496;51.404;7.232;2023-02-01T15:14:42;16.03;;;2.50;;
2972;SDS011;1496;51.404;7.232;2023-02-01T15:17:26;17.23;;;4.00;;
2972;SDS011;1496;51.404;7.232;2023-02-01T15:22:27;20.90;;;4.43;;
2972;SDS011;1496;51.404;7.232;2023-02-01T15:24:56;16.50;;;3.70;;
2972;SDS011;1496;51.404;7.232;2023-02-01T15:27:25;18.63;;;3.57;;
2972;SDS011;1496;51.404;7.232;2023-02-01T15:29:53;19.33;;;4.83;;
2972;SDS011;1496;51.404;7.232;2023-02-01T15:35:02;11.13;;;2.53;;
2972;SDS011;1496;51.404;7.232;2023-02-01T15:37:29;13.13;;;3.10;;
2972;SDS011;1496;51.404;7.232;2023-02-01T15:42:38;15.93;;;4.27;;
2972;SDS011;1496;51.404;7.232;2023-02-01T15:45:26;17.00;;;4.10;;
2972;SDS011;1496;51.404;7.232;2023-02-01T15:47:56;16.27;;;4.43;;
2972;SDS011;1496;51.404;7.232;2023-02-01T15:50:24;15.13;;;3.37;;
2972;SDS011;1496;51.404;7.232;2023-02-01T15:52:53;10.80;;;3.60;;
2972;SDS011;1496;51.404;7.232;2023-02-01T15:55:36;25.23;;;3.67;;
2972;SDS011;1496;51.404;7.232;2023-02-01T15:58:08;13.33;;;2.67;;
2972;SDS011;1496;51.404;7.232;2023-02-01T16:00:42;14.30;;;3.17;;
2972;SDS011;1496;51.404;7.232;2023-02-01T16:03:27;16.80;;;3.50;;
2972;SDS011;1496;51.404;7.232;2023-02-01T16:06:03;13.00;;;3.37;;
2972;SDS011;1496;51.404;7.232;2023-02-01T16:09:00;20.83;;;3.83;;
2972;SDS011;1496;51.404;7.232;2023-02-01T16:11:41;13.97;;;2.90;;
2972;SDS011;1496;51.404;7.232;2023-02-01T16:14:13;17.23;;;3.40;;
2972;SDS011;1496;51.404;7.232;2023-02-01T16:16:40;12.40;;;3.50;;
2972;SDS011;1496;51.404;7.232;2023-02-01T16:19:08;6.80;;;2.43;;
2972;SDS011;1496;51.404;7.232;2023-02-01T16:21:35;9.03;;;3.03;;
2972;SDS011;1496;51.404;7.232;2023-02-01T16:24:02;18.83;;;4.30;;
2972;SDS011;1496;51.404;7.232;2023-02-01T16:26:30;15.07;;;2.77;;
2972;SDS011;1496;51.404;7.232;2023-02-01T16:28:59;18.87;;;2.87;;
2972;SDS011;1496;51.404;7.232;2023-02-01T16:31:34;10.93;;;2.83;;
2972;SDS011;1496;51.404;7.232;2023-02-01T16:34:02;13.13;;;3.43;;
2972;SDS011;1496;51.404;7.232;2023-02-01T16:36:30;21.70;;;3.90;;
2972;SDS011;1496;51.404;7.232;2023-02-01T16:38:58;16.03;;;4.37;;
2972;SDS011;1496;51.404;7.232;2023-02-01T16:41:28;15.00;;;4.20;;
2972;SDS011;1496;51.404;7.232;2023-02-01T16:43:55;14.53;;;3.97;;
2972;SDS011;1496;51.404;7.232;2023-02-01T16:46:25;11.60;;;3.23;;
2972;SDS011;1496;51.404;7.232;2023-02-01T16:48:56;15.00;;;4.00;;
2972;SDS011;1496;51.404;7.232;2023-02-01T16:51:24;8.37;;;4.10;;
2972;SDS011;1496;51.404;7.232;2023-02-01T16:53:57;17.63;;;4.30;;
2972;SDS011;1496;51.404;7.232;2023-02-01T16:56:31;10.77;;;3.73;;
2972;SDS011;1496;51.404;7.232;2023-02-01T16:58:59;16.43;;;4.00;;
2972;SDS011;1496;51.404;7.232;2023-02-01T17:01:26;15.50;;;5.40;;
2972;SDS011;1496;51.404;7.232;2023-02-01T17:03:54;14.73;;;4.40;;
2972;SDS011;1496;51.404;7.232;2023-02-01T17:06:21;19.47;;;6.07;;
2972;SDS011;1496;51.404;7.232;2023-02-01T17:08:59;19.10;;;4.80;;
2972;SDS011;1496;51.404;7.232;2023-02-01T17:11:30;21.53;;;3.50;;
2972;SDS011;1496;51.404;7.232;2023-02-01T17:14:00;23.30;;;3.93;;
2972;SDS011;1496;51.404;7.232;2023-02-01T17:16:40;17.27;;;3.90;;
2972;SDS011;1496;51.404;7.232;2023-02-01T17:19:11;12.30;;;3.63;;
2972;SDS011;1496;51.404;7.232;2023-02-01T17:21:42;16.73;;;4.60;;
2972;SDS011;1496;51.404;7.232;2023-02-01T17:24:15;21.07;;;4.47;;
2972;SDS011;1496;51.404;7.232;2023-02-01T17:26:43;18.33;;;3.93;;
2972;SDS011;1496;51.404;7.232;2023-02-01T17:29:12;16.53;;;4.10;;
2972;SDS011;1496;51.404;7.232;2023-02-01T17:31:39;19.57;;;5.07;;
2972;SDS011;1496;51.404;7.232;2023-02-01T17:34:09;15.17;;;3.10;;
2972;SDS011;1496;51.404;7.232;2023-02-01T17:36:36;11.37;;;4.13;;
2972;SDS011;1496;51.404;7.232;2023-02-01T17:39:07;14.70;;;3.53;;
2972;SDS011;1496;51.404;7.232;2023-02-01T17:41:35;11.33;;;3.70;;
2972;SDS011;1496;51.404;7.232;2023-02-01T17:44:02;12.30;;;4.00;;
2972;SDS011;1496;51.404;7.232;2023-02-01T17:46:31;24.30;;;4.87;;
2972;SDS011;1496;51.404;7.232;2023-02-01T17:48:58;12.37;;;3.53;;
2972;SDS011;1496;51.404;7.232;2023-02-01T17:51:26;16.50;;;3.60;;
2972;SDS011;1496;51.404;7.232;2023-02-01T17:53:54;19.67;;;4.70;;
2972;SDS011;1496;51.404;7.232;2023-02-01T17:56:22;13.27;;;3.67;;
2972;SDS011;1496;51.404;7.232;2023-02-01T17:58:50;20.87;;;3.83;;
2972;SDS011;1496;51.404;7.232;2023-02-01T18:01:18;13.00;;;4.33;;
2972;SDS011;1496;51.404;7.232;2023-02-01T18:03:48;15.33;;;4.97;;
2972;SDS011;1496;51.404;7.232;2023-02-01T18:06:18;23.63;;;4.10;;
2972;SDS011;1496;51.404;7.232;2023-02-01T18:08:47;21.33;;;4.57;;